DTTA Airport Information

Runway Information
Runway 01 Length 10499 ft width 148 ft Elevation 13 ft Threshold N/A Heading 12
Runway 19 Length 10499 ft Width 148 ft Elevation 21 ft Threshold N/A Heading 192
Runway 11 Length 9318 ft width 148 ft Elevation 19 ft Threshold N/A Heading 113
Runway 29 Length 9318 ft Width 148 ft Elevation 11 ft Threshold 657 ft Heading 293
Airport Frequencies
Type APP Name TUNIS APP Frequency 121.2 MHZ
Type ATIS Name TUNIS ATIS Frequency 118.675 MHZ
Type GND Name TUNIS GND Frequency 121.9 MHZ
Type TWR Name TUNIS TWR Frequency 118.1 MHZ
Airport Navaids
Type NDB Name Tunis Frequency 386 KHZ
Type NDB Name Tunis Frequency 325 KHZ
Type VOR-DME Name Tunis Frequency 116500 KHZ
Airport Weather Information & NOTAM
ADDS - METARS form results

(1817 UTC 06 December 2022)
Data provider http://aviationweather.gov/metar/data/
 
METAR text: DTTA 061800Z 10001KT 9999 FEW026 17/09 Q1012
Conditions at: DTTA (TUNIS/CARTHAGE , TN) observed 1800 UTC 06 December 2022
Temperature: 17.0°C (63°F)
Dewpoint: 9.0°C (48°F) [RH = 59%]
Pressure (altimeter): 29.88 inches Hg (1012.0 mb)
Winds: from the E (100 degrees) at 1 MPH (1 knots; 0.5 m/s)
Visibility: 6 or more miles (10+ km)
Ceiling: at least 12,000 feet AGL
Clouds: few clouds at 2600 feet AGL
Weather: no significant weather observed at this time

METAR text: DTTA 061730Z 15001KT 9999 FEW026 17/09 Q1012
Conditions at: DTTA (TUNIS/CARTHAGE , TN) observed 1730 UTC 06 December 2022
Temperature: 17.0°C (63°F)
Dewpoint: 9.0°C (48°F) [RH = 59%]
Pressure (altimeter): 29.88 inches Hg (1012.0 mb)
Winds: from the SSE (150 degrees) at 1 MPH (1 knots; 0.5 m/s)
Visibility: 6 or more miles (10+ km)
Ceiling: at least 12,000 feet AGL
Clouds: few clouds at 2600 feet AGL
Weather: no significant weather observed at this time

Forecast for: DTTA (TUNIS/CARTHAGE , TN)
Text: TAF DTTA 061700Z 0618/0718 VRB01KT 9999 FEW026
Forecast period: 1800 to 1900 UTC 06 December 2022
Forecast type: FROM: standard forecast or significant change
Winds: variable direction winds at 1 MPH (1 knots; 0.5 m/s)
Visibility: 6 or more miles (10+ km)
Ceiling: at least 12,000 feet AGL
Clouds: few clouds at 2600 feet AGL
Weather: no significant weather forecast for this period
Text: BECMG 0619/0621 28010KT
Forecast period: 1900 UTC 06 December 2022 to 1800 UTC 07 December 2022
Forecast type: BECOMING: Conditions expected to become as follows by 2100 UTC 06 December 2022
Winds: from the W (280 degrees) at 12 MPH (10 knots; 5.1 m/s)
Visibility: 6 or more miles (10+ km)
Ceiling: at least 12,000 feet AGL
Clouds: few clouds at 2600 feet AGL
Weather: no significant weather forecast for this period